sensor_id;sensor_type;location;lat;lon;timestamp;pressure;altitude;pressure_sealevel;temperature;humidity
53041;BME280;39326;42.650;23.248;2023-02-19T00:00:01;92805.97;;;6.33;52.91
53041;BME280;39326;42.650;23.248;2023-02-19T00:02:26;92800.03;;;6.78;51.87
53041;BME280;39326;42.650;23.248;2023-02-19T00:04:52;92810.81;;;7.12;50.96
53041;BME280;39326;42.650;23.248;2023-02-19T00:07:17;92808.81;;;7.28;50.43
53041;BME280;39326;42.650;23.248;2023-02-19T00:09:42;92810.13;;;7.15;50.24
53041;BME280;39326;42.650;23.248;2023-02-19T00:12:08;92812.72;;;7.11;50.19
53041;BME280;39326;42.650;23.248;2023-02-19T00:14:33;92805.75;;;6.80;51.04
53041;BME280;39326;42.650;23.248;2023-02-19T00:16:58;92799.22;;;6.97;50.75
53041;BME280;39326;42.650;23.248;2023-02-19T00:19:24;92802.53;;;7.14;50.61
53041;BME280;39326;42.650;23.248;2023-02-19T00:21:51;92792.25;;;7.35;50.21
53041;BME280;39326;42.650;23.248;2023-02-19T00:24:16;92788.75;;;7.54;49.74
53041;BME280;39326;42.650;23.248;2023-02-19T00:26:43;92771.28;;;8.09;48.21
53041;BME280;39326;42.650;23.248;2023-02-19T00:29:19;92770.19;;;8.44;47.40
53041;BME280;39326;42.650;23.248;2023-02-19T00:31:45;92766.19;;;8.61;47.04
53041;BME280;39326;42.650;23.248;2023-02-19T00:34:11;92773.72;;;8.92;46.07
53041;BME280;39326;42.650;23.248;2023-02-19T00:36:38;92773.00;;;8.99;45.52
53041;BME280;39326;42.650;23.248;2023-02-19T00:39:05;92766.72;;;9.18;45.26
53041;BME280;39326;42.650;23.248;2023-02-19T00:41:31;92773.31;;;9.35;44.60
53041;BME280;39326;42.650;23.248;2023-02-19T00:44:02;92779.50;;;9.46;44.32
53041;BME280;39326;42.650;23.248;2023-02-19T00:46:32;92763.28;;;9.69;43.64
53041;BME280;39326;42.650;23.248;2023-02-19T00:48:58;92777.25;;;9.51;43.22
53041;BME280;39326;42.650;23.248;2023-02-19T00:51:27;92764.34;;;9.53;44.11
53041;BME280;39326;42.650;23.248;2023-02-19T00:53:53;92752.50;;;9.47;43.59
53041;BME280;39326;42.650;23.248;2023-02-19T00:56:19;92745.34;;;9.07;45.09
53041;BME280;39326;42.650;23.248;2023-02-19T00:58:45;92747.88;;;8.89;45.23
53041;BME280;39326;42.650;23.248;2023-02-19T01:01:11;92742.59;;;8.56;46.14
53041;BME280;39326;42.650;23.248;2023-02-19T01:03:38;92736.91;;;8.24;46.58
53041;BME280;39326;42.650;23.248;2023-02-19T01:06:05;92738.97;;;8.04;46.82
53041;BME280;39326;42.650;23.248;2023-02-19T01:08:31;92727.25;;;8.08;46.86
53041;BME280;39326;42.650;23.248;2023-02-19T01:10:57;92713.94;;;8.05;47.37
53041;BME280;39326;42.650;23.248;2023-02-19T01:13:22;92681.25;;;8.34;46.07
53041;BME280;39326;42.650;23.248;2023-02-19T01:15:48;92728.72;;;8.73;45.21
53041;BME280;39326;42.650;23.248;2023-02-19T01:18:13;92717.84;;;8.89;45.11
53041;BME280;39326;42.650;23.248;2023-02-19T01:20:40;92726.31;;;8.61;45.76
53041;BME280;39326;42.650;23.248;2023-02-19T01:23:06;92741.16;;;8.32;46.31
53041;BME280;39326;42.650;23.248;2023-02-19T01:25:32;92749.13;;;7.98;47.10
53041;BME280;39326;42.650;23.248;2023-02-19T01:27:57;92748.19;;;7.83;47.31
53041;BME280;39326;42.650;23.248;2023-02-19T01:30:22;92765.91;;;7.49;48.31
53041;BME280;39326;42.650;23.248;2023-02-19T01:32:48;92770.66;;;7.36;48.92
53041;BME280;39326;42.650;23.248;2023-02-19T01:35:13;92772.84;;;7.31;48.94
53041;BME280;39326;42.650;23.248;2023-02-19T01:37:39;92785.78;;;7.09;49.34
53041;BME280;39326;42.650;23.248;2023-02-19T01:40:05;92785.38;;;7.07;49.29
53041;BME280;39326;42.650;23.248;2023-02-19T01:42:31;92786.06;;;7.04;49.47
53041;BME280;39326;42.650;23.248;2023-02-19T01:45:20;92784.69;;;6.88;50.33
53041;BME280;39326;42.650;23.248;2023-02-19T01:47:50;92789.59;;;6.66;50.35
53041;BME280;39326;42.650;23.248;2023-02-19T01:50:18;92799.44;;;6.46;51.27
53041;BME280;39326;42.650;23.248;2023-02-19T01:52:43;92785.66;;;6.56;50.28
53041;BME280;39326;42.650;23.248;2023-02-19T01:55:11;92818.75;;;6.66;50.69
53041;BME280;39326;42.650;23.248;2023-02-19T01:57:41;92811.34;;;6.75;50.08
53041;BME280;39326;42.650;23.248;2023-02-19T02:00:09;92808.72;;;6.56;51.27
53041;BME280;39326;42.650;23.248;2023-02-19T02:02:37;92791.13;;;6.67;50.35
53041;BME280;39326;42.650;23.248;2023-02-19T02:05:04;92782.44;;;6.90;49.51
53041;BME280;39326;42.650;23.248;2023-02-19T02:07:33;92783.41;;;7.27;49.18
53041;BME280;39326;42.650;23.248;2023-02-19T02:10:17;92770.75;;;7.44;48.78
53041;BME280;39326;42.650;23.248;2023-02-19T02:12:50;92761.59;;;7.64;47.12
53041;BME280;39326;42.650;23.248;2023-02-19T02:15:17;92767.41;;;8.03;46.25
53041;BME280;39326;42.650;23.248;2023-02-19T02:17:52;92767.34;;;8.30;45.63
53041;BME280;39326;42.650;23.248;2023-02-19T02:23:39;92767.53;;;8.44;44.75
53041;BME280;39326;42.650;23.248;2023-02-19T02:26:29;92764.03;;;8.73;44.89
53041;BME280;39326;42.650;23.248;2023-02-19T02:31:46;92778.91;;;8.78;44.37
53041;BME280;39326;42.650;23.248;2023-02-19T02:34:18;92782.50;;;8.96;43.94
53041;BME280;39326;42.650;23.248;2023-02-19T02:36:50;92781.13;;;9.13;43.36
53041;BME280;39326;42.650;23.248;2023-02-19T02:39:19;92774.78;;;9.28;42.70
53041;BME280;39326;42.650;23.248;2023-02-19T02:41:53;92801.13;;;9.44;42.61
53041;BME280;39326;42.650;23.248;2023-02-19T02:44:40;92814.50;;;9.48;42.66
53041;BME280;39326;42.650;23.248;2023-02-19T02:47:07;92809.50;;;9.39;43.23
53041;BME280;39326;42.650;23.248;2023-02-19T02:49:55;92803.19;;;9.14;43.51
53041;BME280;39326;42.650;23.248;2023-02-19T02:52:36;92810.47;;;9.20;42.59
53041;BME280;39326;42.650;23.248;2023-02-19T02:55:23;92800.16;;;9.15;42.59
53041;BME280;39326;42.650;23.248;2023-02-19T02:57:49;92798.81;;;9.36;42.16
53041;BME280;39326;42.650;23.248;2023-02-19T03:00:14;92807.69;;;9.54;41.76
53041;BME280;39326;42.650;23.248;2023-02-19T03:02:41;92806.66;;;9.69;41.14
53041;BME280;39326;42.650;23.248;2023-02-19T03:05:22;92811.66;;;9.78;41.36
53041;BME280;39326;42.650;23.248;2023-02-19T03:08:19;92803.31;;;9.79;41.02
53041;BME280;39326;42.650;23.248;2023-02-19T03:10:50;92809.47;;;9.91;41.05
53041;BME280;39326;42.650;23.248;2023-02-19T03:13:34;92809.84;;;9.89;40.78
53041;BME280;39326;42.650;23.248;2023-02-19T03:16:22;92808.75;;;9.97;40.68
53041;BME280;39326;42.650;23.248;2023-02-19T03:19:13;92825.03;;;9.89;41.72
53041;BME280;39326;42.650;23.248;2023-02-19T03:22:16;92824.22;;;9.77;40.89
53041;BME280;39326;42.650;23.248;2023-02-19T03:24:54;92828.53;;;10.00;40.69
53041;BME280;39326;42.650;23.248;2023-02-19T03:27:41;92824.41;;;10.02;40.66
53041;BME280;39326;42.650;23.248;2023-02-19T03:30:15;92839.66;;;10.05;41.00
53041;BME280;39326;42.650;23.248;2023-02-19T03:32:52;92844.63;;;10.11;40.75
53041;BME280;39326;42.650;23.248;2023-02-19T03:35:27;92858.69;;;10.04;40.49
53041;BME280;39326;42.650;23.248;2023-02-19T03:38:11;92860.22;;;10.08;40.40
53041;BME280;39326;42.650;23.248;2023-02-19T03:40:48;92858.19;;;9.95;41.38
53041;BME280;39326;42.650;23.248;2023-02-19T03:43:22;92874.06;;;9.80;41.39
53041;BME280;39326;42.650;23.248;2023-02-19T03:45:57;92868.47;;;9.93;41.00
53041;BME280;39326;42.650;23.248;2023-02-19T03:48:35;92865.91;;;10.07;40.78
53041;BME280;39326;42.650;23.248;2023-02-19T03:56:33;92854.00;;;9.90;42.16
53041;BME280;39326;42.650;23.248;2023-02-19T04:02:12;92857.84;;;9.96;41.03
53041;BME280;39326;42.650;23.248;2023-02-19T04:04:43;92860.47;;;9.89;41.08
53041;BME280;39326;42.650;23.248;2023-02-19T04:07:10;92867.75;;;9.99;40.93
53041;BME280;39326;42.650;23.248;2023-02-19T04:09:39;92871.50;;;9.95;41.48
53041;BME280;39326;42.650;23.248;2023-02-19T04:12:06;92865.03;;;9.92;41.53
53041;BME280;39326;42.650;23.248;2023-02-19T04:14:37;92878.25;;;9.81;42.21
53041;BME280;39326;42.650;23.248;2023-02-19T04:17:09;92879.03;;;9.78;41.99
53041;BME280;39326;42.650;23.248;2023-02-19T04:19:39;92873.28;;;9.76;41.33
53041;BME280;39326;42.650;23.248;2023-02-19T04:22:07;92871.03;;;9.78;41.92
53041;BME280;39326;42.650;23.248;2023-02-19T04:24:37;92880.50;;;9.76;41.64
53041;BME280;39326;42.650;23.248;2023-02-19T04:27:04;92879.31;;;9.70;41.71
53041;BME280;39326;42.650;23.248;2023-02-19T04:29:30;92878.22;;;9.71;41.65
53041;BME280;39326;42.650;23.248;2023-02-19T04:31:55;92865.94;;;9.59;42.06
53041;BME280;39326;42.650;23.248;2023-02-19T04:34:21;92887.13;;;9.48;43.06
53041;BME280;39326;42.650;23.248;2023-02-19T04:36:46;92880.22;;;9.40;43.32
53041;BME280;39326;42.650;23.248;2023-02-19T04:39:12;92888.63;;;9.46;42.57
53041;BME280;39326;42.650;23.248;2023-02-19T04:41:37;92892.41;;;9.45;43.27
53041;BME280;39326;42.650;23.248;2023-02-19T04:44:03;92898.41;;;9.35;43.29
53041;BME280;39326;42.650;23.248;2023-02-19T04:46:28;92891.41;;;9.19;43.81
53041;BME280;39326;42.650;23.248;2023-02-19T04:48:54;92895.81;;;9.42;43.77
53041;BME280;39326;42.650;23.248;2023-02-19T04:51:20;92907.03;;;9.62;43.08
53041;BME280;39326;42.650;23.248;2023-02-19T04:53:45;92907.22;;;9.42;43.77
53041;BME280;39326;42.650;23.248;2023-02-19T04:56:13;92909.38;;;9.30;43.36
53041;BME280;39326;42.650;23.248;2023-02-19T04:58:40;92897.16;;;9.25;43.49
53041;BME280;39326;42.650;23.248;2023-02-19T05:01:06;92919.59;;;9.24;43.79
53041;BME280;39326;42.650;23.248;2023-02-19T05:03:32;92930.09;;;9.13;44.37
53041;BME280;39326;42.650;23.248;2023-02-19T05:06:04;92925.78;;;9.35;43.94
53041;BME280;39326;42.650;23.248;2023-02-19T05:08:30;92919.72;;;9.35;43.91
53041;BME280;39326;42.650;23.248;2023-02-19T05:10:59;92911.34;;;9.36;43.64
53041;BME280;39326;42.650;23.248;2023-02-19T05:13:25;92921.56;;;9.31;44.30
53041;BME280;39326;42.650;23.248;2023-02-19T05:15:59;92934.44;;;9.25;45.42
53041;BME280;39326;42.650;23.248;2023-02-19T05:18:25;92930.97;;;9.21;44.54
53041;BME280;39326;42.650;23.248;2023-02-19T05:20:51;92930.97;;;9.21;45.25
53041;BME280;39326;42.650;23.248;2023-02-19T05:23:17;92929.78;;;9.15;44.94
53041;BME280;39326;42.650;23.248;2023-02-19T05:25:43;92927.56;;;9.24;45.05
53041;BME280;39326;42.650;23.248;2023-02-19T05:28:08;92933.97;;;9.19;44.77
53041;BME280;39326;42.650;23.248;2023-02-19T05:30:48;92936.25;;;9.17;45.32
53041;BME280;39326;42.650;23.248;2023-02-19T05:33:14;92938.50;;;9.15;45.02
53041;BME280;39326;42.650;23.248;2023-02-19T05:35:51;92941.78;;;9.02;46.21
53041;BME280;39326;42.650;23.248;2023-02-19T05:38:17;92944.38;;;8.98;45.78
53041;BME280;39326;42.650;23.248;2023-02-19T05:40:44;92949.25;;;8.92;46.41
53041;BME280;39326;42.650;23.248;2023-02-19T05:43:10;92941.25;;;8.89;45.72
53041;BME280;39326;42.650;23.248;2023-02-19T05:45:35;92949.09;;;8.78;46.61
53041;BME280;39326;42.650;23.248;2023-02-19T05:48:02;92948.03;;;8.86;46.52
53041;BME280;39326;42.650;23.248;2023-02-19T05:50:28;92944.16;;;8.77;47.00
53041;BME280;39326;42.650;23.248;2023-02-19T05:52:54;92940.72;;;8.76;46.66
53041;BME280;39326;42.650;23.248;2023-02-19T05:55:19;92938.00;;;8.72;47.29
53041;BME280;39326;42.650;23.248;2023-02-19T05:57:47;92930.72;;;8.69;47.77
53041;BME280;39326;42.650;23.248;2023-02-19T06:00:15;92938.72;;;8.69;47.42
53041;BME280;39326;42.650;23.248;2023-02-19T06:02:41;92944.53;;;8.79;47.12
53041;BME280;39326;42.650;23.248;2023-02-19T06:05:07;92946.91;;;8.87;46.64
53041;BME280;39326;42.650;23.248;2023-02-19T06:07:33;92947.06;;;8.68;46.92
53041;BME280;39326;42.650;23.248;2023-02-19T06:09:59;92955.72;;;8.91;46.67
53041;BME280;39326;42.650;23.248;2023-02-19T06:12:24;92964.81;;;8.90;46.51
53041;BME280;39326;42.650;23.248;2023-02-19T06:14:50;92957.25;;;8.92;46.11
53041;BME280;39326;42.650;23.248;2023-02-19T06:17:15;92959.91;;;8.92;46.36
53041;BME280;39326;42.650;23.248;2023-02-19T06:19:41;92957.28;;;8.96;45.94
53041;BME280;39326;42.650;23.248;2023-02-19T06:22:07;92955.84;;;9.02;46.23
53041;BME280;39326;42.650;23.248;2023-02-19T06:24:33;92966.44;;;8.98;45.86
53041;BME280;39326;42.650;23.248;2023-02-19T06:26:58;92948.41;;;8.85;46.03
53041;BME280;39326;42.650;23.248;2023-02-19T06:29:24;92953.63;;;9.08;45.56
53041;BME280;39326;42.650;23.248;2023-02-19T06:31:49;92959.28;;;9.03;46.13
53041;BME280;39326;42.650;23.248;2023-02-19T06:34:15;92959.22;;;8.99;46.14
53041;BME280;39326;42.650;23.248;2023-02-19T06:36:41;92950.88;;;9.00;45.90
53041;BME280;39326;42.650;23.248;2023-02-19T06:39:06;92944.44;;;9.02;45.81
53041;BME280;39326;42.650;23.248;2023-02-19T06:41:32;92949.72;;;8.98;46.17
53041;BME280;39326;42.650;23.248;2023-02-19T06:43:58;92948.97;;;9.01;46.14
53041;BME280;39326;42.650;23.248;2023-02-19T06:46:23;92947.53;;;9.07;45.78
53041;BME280;39326;42.650;23.248;2023-02-19T06:48:48;92955.13;;;9.05;46.25
53041;BME280;39326;42.650;23.248;2023-02-19T06:51:18;92952.13;;;9.10;46.23
53041;BME280;39326;42.650;23.248;2023-02-19T06:53:46;92946.06;;;9.13;46.13
53041;BME280;39326;42.650;23.248;2023-02-19T06:56:31;92950.31;;;9.18;46.24
53041;BME280;39326;42.650;23.248;2023-02-19T06:58:59;92948.84;;;9.20;45.79
53041;BME280;39326;42.650;23.248;2023-02-19T07:01:26;92952.34;;;9.28;46.00
53041;BME280;39326;42.650;23.248;2023-02-19T07:03:51;92960.97;;;9.51;44.98
53041;BME280;39326;42.650;23.248;2023-02-19T07:06:19;92959.50;;;9.61;45.18
53041;BME280;39326;42.650;23.248;2023-02-19T07:08:44;92953.06;;;9.62;45.35
53041;BME280;39326;42.650;23.248;2023-02-19T07:11:10;92959.19;;;9.66;45.36
53041;BME280;39326;42.650;23.248;2023-02-19T07:13:35;92958.94;;;9.78;44.99
53041;BME280;39326;42.650;23.248;2023-02-19T07:16:04;92966.94;;;9.82;45.10
53041;BME280;39326;42.650;23.248;2023-02-19T07:18:30;92967.34;;;9.84;45.06
53041;BME280;39326;42.650;23.248;2023-02-19T07:21:13;92967.75;;;9.86;44.68
53041;BME280;39326;42.650;23.248;2023-02-19T07:23:39;92959.81;;;9.93;44.66
53041;BME280;39326;42.650;23.248;2023-02-19T07:26:13;92955.94;;;9.84;44.97
53041;BME280;39326;42.650;23.248;2023-02-19T07:28:40;92955.66;;;9.99;44.43
53041;BME280;39326;42.650;23.248;2023-02-19T07:31:05;92957.25;;;10.04;44.49
53041;BME280;39326;42.650;23.248;2023-02-19T07:33:31;92955.41;;;10.12;44.08
53041;BME280;39326;42.650;23.248;2023-02-19T07:35:56;92957.84;;;10.27;44.41
53041;BME280;39326;42.650;23.248;2023-02-19T07:38:23;92950.34;;;10.51;43.79
53041;BME280;39326;42.650;23.248;2023-02-19T07:40:53;92955.75;;;10.61;43.36
53041;BME280;39326;42.650;23.248;2023-02-19T07:43:19;92954.56;;;10.55;43.72
53041;BME280;39326;42.650;23.248;2023-02-19T07:45:44;92952.09;;;10.84;43.09
53041;BME280;39326;42.650;23.248;2023-02-19T07:48:11;92947.53;;;10.95;42.52
53041;BME280;39326;42.650;23.248;2023-02-19T07:50:36;92949.09;;;11.00;42.61
53041;BME280;39326;42.650;23.248;2023-02-19T07:53:02;92941.13;;;11.14;42.49
53041;BME280;39326;42.650;23.248;2023-02-19T07:55:27;92936.69;;;11.50;41.69
53041;BME280;39326;42.650;23.248;2023-02-19T07:57:52;92927.59;;;11.73;41.23
53041;BME280;39326;42.650;23.248;2023-02-19T08:00:18;92927.22;;;11.92;40.39
53041;BME280;39326;42.650;23.248;2023-02-19T08:02:44;92931.03;;;11.98;40.31
53041;BME280;39326;42.650;23.248;2023-02-19T08:05:37;92932.19;;;12.04;39.72
53041;BME280;39326;42.650;23.248;2023-02-19T08:08:07;92924.16;;;12.11;40.04
53041;BME280;39326;42.650;23.248;2023-02-19T08:10:33;92932.56;;;12.31;39.96
53041;BME280;39326;42.650;23.248;2023-02-19T08:13:17;92933.31;;;12.35;39.39
53041;BME280;39326;42.650;23.248;2023-02-19T08:15:52;92932.56;;;12.31;39.80
53041;BME280;39326;42.650;23.248;2023-02-19T08:18:21;92939.84;;;12.16;39.98
53041;BME280;39326;42.650;23.248;2023-02-19T08:20:47;92935.25;;;12.10;40.34
53041;BME280;39326;42.650;23.248;2023-02-19T08:23:13;92943.25;;;12.24;40.13
53041;BME280;39326;42.650;23.248;2023-02-19T08:25:39;92937.53;;;12.47;40.00
53041;BME280;39326;42.650;23.248;2023-02-19T08:28:08;92947.81;;;12.63;39.52
53041;BME280;39326;42.650;23.248;2023-02-19T08:30:34;92939.03;;;12.69;39.63
53041;BME280;39326;42.650;23.248;2023-02-19T08:33:00;92944.75;;;12.50;39.99
53041;BME280;39326;42.650;23.248;2023-02-19T08:35:27;92954.28;;;12.83;39.47
53041;BME280;39326;42.650;23.248;2023-02-19T08:37:56;92936.97;;;13.16;38.88
53041;BME280;39326;42.650;23.248;2023-02-19T08:40:23;92946.25;;;12.83;38.66
53041;BME280;39326;42.650;23.248;2023-02-19T08:42:48;92932.41;;;13.10;38.80
53041;BME280;39326;42.650;23.248;2023-02-19T08:45:14;92930.84;;;13.16;38.45
53041;BME280;39326;42.650;23.248;2023-02-19T08:47:39;92921.22;;;13.32;38.79
53041;BME280;39326;42.650;23.248;2023-02-19T08:50:06;92921.84;;;13.58;38.24
53041;BME280;39326;42.650;23.248;2023-02-19T08:52:32;92928.34;;;13.61;38.36
53041;BME280;39326;42.650;23.248;2023-02-19T08:54:58;92935.47;;;13.81;38.21
53041;BME280;39326;42.650;23.248;2023-02-19T08:57:24;92919.81;;;13.76;38.50
53041;BME280;39326;42.650;23.248;2023-02-19T08:59:50;92916.56;;;14.06;38.31
53041;BME280;39326;42.650;23.248;2023-02-19T09:02:16;92915.22;;;14.29;38.06
53041;BME280;39326;42.650;23.248;2023-02-19T09:04:41;92907.50;;;14.38;38.03
53041;BME280;39326;42.650;23.248;2023-02-19T09:07:07;92905.81;;;14.51;37.33
53041;BME280;39326;42.650;23.248;2023-02-19T09:09:38;92913.91;;;14.03;37.95
53041;BME280;39326;42.650;23.248;2023-02-19T09:12:08;92905.31;;;14.22;38.48
53041;BME280;39326;42.650;23.248;2023-02-19T09:14:34;92905.00;;;14.17;38.21
53041;BME280;39326;42.650;23.248;2023-02-19T09:17:01;92901.72;;;14.39;38.02
53041;BME280;39326;42.650;23.248;2023-02-19T09:19:27;92899.09;;;14.74;37.65
53041;BME280;39326;42.650;23.248;2023-02-19T09:21:53;92902.69;;;15.28;36.92
53041;BME280;39326;42.650;23.248;2023-02-19T09:24:19;92904.44;;;15.42;35.98
53041;BME280;39326;42.650;23.248;2023-02-19T09:26:48;92901.88;;;15.62;35.28
53041;BME280;39326;42.650;23.248;2023-02-19T09:29:14;92885.75;;;15.62;35.81
53041;BME280;39326;42.650;23.248;2023-02-19T09:31:39;92892.34;;;15.57;35.64
53041;BME280;39326;42.650;23.248;2023-02-19T09:34:05;92900.44;;;15.54;35.38
53041;BME280;39326;42.650;23.248;2023-02-19T09:36:30;92892.13;;;15.44;35.32
53041;BME280;39326;42.650;23.248;2023-02-19T09:38:58;92899.75;;;15.50;35.80
53041;BME280;39326;42.650;23.248;2023-02-19T09:41:31;92896.66;;;15.51;35.50
53041;BME280;39326;42.650;23.248;2023-02-19T09:43:58;92899.63;;;14.96;35.45
53041;BME280;39326;42.650;23.248;2023-02-19T09:46:41;92896.91;;;14.99;35.06
53041;BME280;39326;42.650;23.248;2023-02-19T09:49:13;92885.72;;;15.04;35.04
53041;BME280;39326;42.650;23.248;2023-02-19T09:51:43;92880.97;;;15.15;35.35
53041;BME280;39326;42.650;23.248;2023-02-19T09:54:25;92880.25;;;15.42;35.26
53041;BME280;39326;42.650;23.248;2023-02-19T09:56:56;92862.31;;;15.62;34.91
53041;BME280;39326;42.650;23.248;2023-02-19T09:59:27;92858.78;;;15.92;34.86
53041;BME280;39326;42.650;23.248;2023-02-19T10:02:12;92835.31;;;15.69;34.53
53041;BME280;39326;42.650;23.248;2023-02-19T10:04:40;92850.09;;;15.58;34.65
53041;BME280;39326;42.650;23.248;2023-02-19T10:07:20;92844.94;;;15.67;34.47
53041;BME280;39326;42.650;23.248;2023-02-19T10:10:01;92832.78;;;15.59;34.41
53041;BME280;39326;42.650;23.248;2023-02-19T10:12:30;92830.94;;;15.79;34.79
53041;BME280;39326;42.650;23.248;2023-02-19T10:15:28;92815.97;;;15.78;34.36
53041;BME280;39326;42.650;23.248;2023-02-19T10:17:57;92817.28;;;16.17;34.55
53041;BME280;39326;42.650;23.248;2023-02-19T10:20:24;92809.72;;;16.32;34.16
53041;BME280;39326;42.650;23.248;2023-02-19T10:23:18;92809.56;;;16.19;33.54
53041;BME280;39326;42.650;23.248;2023-02-19T10:25:46;92809.09;;;16.24;34.21
53041;BME280;39326;42.650;23.248;2023-02-19T10:28:17;92814.97;;;16.59;33.36
53041;BME280;39326;42.650;23.248;2023-02-19T10:30:50;92809.84;;;16.24;33.31
53041;BME280;39326;42.650;23.248;2023-02-19T10:33:16;92803.25;;;16.06;33.69
53041;BME280;39326;42.650;23.248;2023-02-19T10:35:57;92797.28;;;16.18;33.23
53041;BME280;39326;42.650;23.248;2023-02-19T10:38:27;92786.72;;;16.27;33.63
53041;BME280;39326;42.650;23.248;2023-02-19T10:41:14;92777.69;;;15.94;33.57
53041;BME280;39326;42.650;23.248;2023-02-19T10:43:48;92774.69;;;15.88;33.70
53041;BME280;39326;42.650;23.248;2023-02-19T10:46:17;92761.34;;;15.58;34.45
53041;BME280;39326;42.650;23.248;2023-02-19T10:48:52;92760.31;;;15.52;34.40
53041;BME280;39326;42.650;23.248;2023-02-19T10:51:19;92759.28;;;15.42;34.54
53041;BME280;39326;42.650;23.248;2023-02-19T10:53:49;92750.56;;;15.61;34.96
53041;BME280;39326;42.650;23.248;2023-02-19T10:56:21;92749.03;;;15.84;34.55
53041;BME280;39326;42.650;23.248;2023-02-19T10:58:47;92738.94;;;15.68;34.52
53041;BME280;39326;42.650;23.248;2023-02-19T11:01:16;92739.59;;;15.72;34.17
53041;BME280;39326;42.650;23.248;2023-02-19T11:03:44;92747.56;;;15.79;34.19
53041;BME280;39326;42.650;23.248;2023-02-19T11:06:12;92723.69;;;16.05;33.94
53041;BME280;39326;42.650;23.248;2023-02-19T11:08:58;92727.38;;;15.91;33.49
53041;BME280;39326;42.650;23.248;2023-02-19T11:11:26;92719.50;;;16.23;33.69
53041;BME280;39326;42.650;23.248;2023-02-19T11:13:54;92713.84;;;16.58;32.87
53041;BME280;39326;42.650;23.248;2023-02-19T11:16:20;92702.69;;;16.75;32.98
53041;BME280;39326;42.650;23.248;2023-02-19T11:18:53;92693.28;;;16.84;32.46
53041;BME280;39326;42.650;23.248;2023-02-19T11:21:27;92683.81;;;16.95;32.38
53041;BME280;39326;42.650;23.248;2023-02-19T11:24:00;92683.97;;;16.88;32.33
53041;BME280;39326;42.650;23.248;2023-02-19T11:26:31;92691.56;;;16.93;32.01
53041;BME280;39326;42.650;23.248;2023-02-19T11:29:02;92682.28;;;17.11;31.73
53041;BME280;39326;42.650;23.248;2023-02-19T11:31:36;92668.47;;;16.92;31.68
53041;BME280;39326;42.650;23.248;2023-02-19T11:36:46;92677.06;;;16.87;31.51
53041;BME280;39326;42.650;23.248;2023-02-19T11:53:19;92655.94;;;17.34;29.92
53041;BME280;39326;42.650;23.248;2023-02-19T12:04:03;92641.63;;;17.83;29.65
53041;BME280;39326;42.650;23.248;2023-02-19T12:26:02;92611.88;;;18.41;28.21
53041;BME280;39326;42.650;23.248;2023-02-19T12:28:58;92601.28;;;18.47;27.82
53041;BME280;39326;42.650;23.248;2023-02-19T12:39:46;92579.78;;;19.41;26.31
53041;BME280;39326;42.650;23.248;2023-02-19T12:42:31;92573.50;;;19.44;27.06
53041;BME280;39326;42.650;23.248;2023-02-19T12:45:14;92573.47;;;19.23;26.29
53041;BME280;39326;42.650;23.248;2023-02-19T12:47:42;92574.31;;;19.32;26.53
53041;BME280;39326;42.650;23.248;2023-02-19T12:50:30;92564.19;;;19.11;25.83
53041;BME280;39326;42.650;23.248;2023-02-19T12:53:01;92560.19;;;19.15;26.55
53041;BME280;39326;42.650;23.248;2023-02-19T12:55:34;92559.72;;;19.64;26.97
53041;BME280;39326;42.650;23.248;2023-02-19T12:58:02;92550.03;;;19.41;26.16
53041;BME280;39326;42.650;23.248;2023-02-19T13:03:27;92551.28;;;19.84;25.99
53041;BME280;39326;42.650;23.248;2023-02-19T13:08:47;92542.63;;;19.89;25.23
53041;BME280;39326;42.650;23.248;2023-02-19T13:11:24;92534.81;;;19.35;25.83
53041;BME280;39326;42.650;23.248;2023-02-19T13:13:59;92532.47;;;19.24;26.44
53041;BME280;39326;42.650;23.248;2023-02-19T13:16:28;92529.94;;;19.08;26.99
53041;BME280;39326;42.650;23.248;2023-02-19T13:19:01;92526.44;;;19.20;26.74
53041;BME280;39326;42.650;23.248;2023-02-19T13:21:31;92521.28;;;19.35;25.93
53041;BME280;39326;42.650;23.248;2023-02-19T13:24:22;92519.28;;;19.26;25.93
53041;BME280;39326;42.650;23.248;2023-02-19T13:32:25;92508.38;;;18.82;26.80
53041;BME280;39326;42.650;23.248;2023-02-19T13:38:04;92496.06;;;18.18;27.22
53041;BME280;39326;42.650;23.248;2023-02-19T13:40:35;92498.97;;;17.98;27.46
53041;BME280;39326;42.650;23.248;2023-02-19T13:43:27;92481.72;;;17.95;28.12
53041;BME280;39326;42.650;23.248;2023-02-19T13:45:57;92491.53;;;18.14;27.28
53041;BME280;39326;42.650;23.248;2023-02-19T13:50:49;92486.97;;;17.99;27.96
53041;BME280;39326;42.650;23.248;2023-02-19T14:02:09;92483.16;;;17.00;29.44
53041;BME280;39326;42.650;23.248;2023-02-19T14:22:48;92456.47;;;16.73;29.64
53041;BME280;39326;42.650;23.248;2023-02-19T14:25:36;92457.28;;;16.86;28.81
53041;BME280;39326;42.650;23.248;2023-02-19T14:30:30;92441.00;;;16.77;29.90
53041;BME280;39326;42.650;23.248;2023-02-19T14:32:57;92442.94;;;16.76;30.05
53041;BME280;39326;42.650;23.248;2023-02-19T14:35:37;92450.69;;;16.58;30.17
53041;BME280;39326;42.650;23.248;2023-02-19T14:38:04;92435.13;;;16.66;30.23
53041;BME280;39326;42.650;23.248;2023-02-19T14:40:38;92439.47;;;16.76;30.83
53041;BME280;39326;42.650;23.248;2023-02-19T14:43:13;92430.72;;;16.72;30.21
53041;BME280;39326;42.650;23.248;2023-02-19T14:45:56;92419.22;;;16.55;29.96
53041;BME280;39326;42.650;23.248;2023-02-19T14:48:32;92427.91;;;16.63;30.31
53041;BME280;39326;42.650;23.248;2023-02-19T14:51:06;92431.19;;;16.54;30.47
53041;BME280;39326;42.650;23.248;2023-02-19T14:53:37;92412.09;;;16.48;30.18
53041;BME280;39326;42.650;23.248;2023-02-19T14:56:04;92423.28;;;16.63;30.58
53041;BME280;39326;42.650;23.248;2023-02-19T14:58:31;92417.03;;;16.66;30.31
53041;BME280;39326;42.650;23.248;2023-02-19T15:00:56;92420.00;;;16.56;30.93
53041;BME280;39326;42.650;23.248;2023-02-19T15:03:32;92418.16;;;16.52;30.44